Time;durP1;ratioP1;P1;durP2;ratioP2;P2;SDS_P1;SDS_P2;PMS_P1;PMS_P2;Temp;Humidity;BMP_temperature;BMP_pressure;BME280_temperature;BME280_humidity;BME280_pressure;Samples;Min_cycle;Max_cycle;Signal;HPM_P1;HPM_P2
2022/03/25 00:02:06;;;;;;;123.75;64.15;;;5.60;99.90;;;;;;4841151;29;20044;-83
2022/03/25 00:05:12;;;;;;;120.15;59.53;;;6.40;99.90;;;;;;4868200;29;20137;-83
2022/03/25 00:08:11;;;;;;;125.88;64.07;;;5.20;99.90;;;;;;4903125;28;20108;-82
2022/03/25 00:10:55;;;;;;;120.00;61.78;;;5.20;99.90;;;;;;4928876;29;20059;-82
2022/03/25 00:13:58;;;;;;;105.40;58.88;;;6.10;99.90;;;;;;4946668;29;20055;-83
2022/03/25 00:16:45;;;;;;;114.57;58.42;;;5.10;99.90;;;;;;4930528;29;20567;-82
2022/03/25 00:19:35;;;;;;;117.68;63.63;;;5.10;99.90;;;;;;4973399;28;20170;-81
2022/03/25 00:22:24;;;;;;;120.85;60.08;;;5.90;99.90;;;;;;4990202;28;20517;-83
2022/03/25 00:25:19;;;;;;;;;;;;;;;;;;;;;
2022/03/25 00:28:37;;;;;;;;;;;;;;;;;;;;;
2022/03/25 00:31:21;;;;;;;111.50;57.67;;;4.40;99.90;;;;;;4906905;29;20363;-82
2022/03/25 00:34:02;;;;;;;;;;;5.90;99.90;;;;;;4954145;29;20130;-83
2022/03/25 00:37:00;;;;;;;;;;;;;;;;;;;;;
2022/03/25 00:40:41;;;;;;;117.97;57.75;;;6.30;99.90;;;;;;4951344;29;20049;-81
2022/03/25 00:43:34;;;;;;;122.20;57.80;;;5.00;99.90;;;;;;4992175;28;20410;-83
2022/03/25 00:46:26;;;;;;;110.00;57.55;;;4.90;99.90;;;;;;4997881;28;20080;-83
2022/03/25 00:49:33;;;;;;;116.43;58.35;;;5.00;99.90;;;;;;5030713;28;20061;-82
2022/03/25 00:52:55;;;;;;;107.32;54.78;;;5.80;99.90;;;;;;5007900;28;20505;-83
2022/03/25 00:59:23;;;;;;;103.53;55.22;;;4.90;99.90;;;;;;4940737;29;20055;-82
2022/03/25 01:02:43;;;;;;;117.93;59.90;;;3.50;99.90;;;;;;4952620;28;20061;-83
2022/03/25 01:06:08;;;;;;;;;;;;;;;;;;;;;
2022/03/25 01:16:48;;;;;;;;;;;;;;;;;;;;;
2022/03/25 01:19:02;;;;;;;;;;;;;;;;;;;;;
2022/03/25 01:21:49;;;;;;;105.97;54.58;;;4.70;99.90;;;;;;4961671;28;20122;-83
2022/03/25 01:25:00;;;;;;;;;;;;;;;;;;;;;
2022/03/25 01:27:41;;;;;;;108.32;54.65;;;4.70;99.90;;;;;;4954321;28;20304;-83
2022/03/25 01:30:32;;;;;;;;;;;;;;;;;;;;;
2022/03/25 01:33:47;;;;;;;;;;;;;;;;;;;;;
2022/03/25 01:36:56;;;;;;;111.38;58.33;;;5.50;99.90;;;;;;4965795;28;20126;-81
2022/03/25 01:40:05;;;;;;;103.50;51.53;;;5.80;99.90;;;;;;5005377;28;20089;-83
2022/03/25 01:42:56;;;;;;;109.38;56.05;;;4.90;99.90;;;;;;5053509;28;20107;-82
2022/03/25 01:45:56;;;;;;;;;;;;;;;;;;;;;
2022/03/25 01:48:53;;;;;;;109.45;59.47;;;4.60;99.90;;;;;;5053376;28;20053;-83
2022/03/25 01:59:13;;;;;;;107.78;56.55;;;4.70;99.90;;;;;;5024378;28;20049;-84
2022/03/25 02:02:13;;;;;;;106.28;55.38;;;4.50;99.90;;;;;;4943537;28;20174;-83
2022/03/25 02:05:27;;;;;;;106.20;57.70;;;4.60;99.90;;;;;;4937262;29;20052;-83
2022/03/25 02:09:02;;;;;;;;;;;;;;;;;;;;;
2022/03/25 02:11:59;;;;;;;112.07;56.00;;;3.50;99.90;;;;;;4974304;28;20059;-83
2022/03/25 02:15:29;;;;;;;;;;;;;;;;;;;;;
2022/03/25 02:18:18;;;;;;;115.60;58.92;;;4.70;99.90;;;;;;4942002;29;20067;-82
2022/03/25 02:21:10;;;;;;;110.47;56.60;;;4.60;99.90;;;;;;4954063;28;20093;-81
2022/03/25 02:24:19;;;;;;;;;;;;;;;;;;;;;
2022/03/25 02:28:06;;;;;;;109.43;56.92;;;2.90;99.90;;;;;;5036235;28;20045;-83
2022/03/25 02:31:20;;;;;;;;;;;;;;;;;;;;;
2022/03/25 02:38:30;;;;;;;113.22;55.33;;;4.40;99.90;;;;;;4959177;29;20486;-83
2022/03/25 02:49:57;;;;;;;;;;;;;;;;;;;;;
2022/03/25 02:53:25;;;;;;;;;;;;;;;;;;;;;
2022/03/25 03:00:41;;;;;;;106.80;53.67;;;4.30;99.90;;;;;;4977085;28;20054;-82
2022/03/25 03:11:01;;;;;;;;;;;;;;;;;;;;;
2022/03/25 03:21:56;;;;;;;103.25;53.72;;;4.60;99.90;;;;;;4820924;29;20609;-82
2022/03/25 03:33:45;;;;;;;98.60;49.25;;;4.30;99.90;;;;;;4750888;30;20486;-82
2022/03/25 03:37:07;;;;;;;;;;;;;;;;;;;;;
2022/03/25 03:40:40;;;;;;;96.30;47.13;;;4.70;99.90;;;;;;4786664;30;20477;-83
2022/03/25 03:44:19;;;;;;;;;;;;;;;;;;;;;
2022/03/25 03:51:50;;;;;;;;;;;;;;;;;;;;;
2022/03/25 03:55:18;;;;;;;77.90;41.55;;;3.00;99.90;;;;;;4812166;29;20149;-81
2022/03/25 04:02:34;;;;;;;77.05;41.05;;;3.30;99.90;;;;;;4842975;29;20061;-83
2022/03/25 04:05:56;;;;;;;;;;;;;;;;;;;;;
2022/03/25 04:09:29;;;;;;;75.55;39.83;;;5.00;99.90;;;;;;4826228;29;20056;-83
2022/03/25 04:19:59;;;;;;;72.05;38.42;;;4.50;99.90;;;;;;4984545;28;20052;-83
2022/03/25 04:23:22;;;;;;;83.75;40.92;;;3.10;99.90;;;;;;5017163;28;20052;-82
2022/03/25 04:26:24;;;;;;;;;;;;;;;;;;;;;
2022/03/25 04:29:58;;;;;;;;;;;;;;;;;;;;;
2022/03/25 04:33:09;;;;;;;;;;;;;;;;;;;;;
2022/03/25 04:36:50;;;;;;;74.28;38.85;;;4.00;99.90;;;;;;4918291;28;20453;-83
2022/03/25 04:40:18;;;;;;;;;;;;;;;;;;;;;
2022/03/25 04:43:41;;;;;;;;;;;;;;;;;;;;;
2022/03/25 04:47:21;;;;;;;;;;;;;;;;;;;;;
2022/03/25 04:54:50;;;;;;;;;;;;;;;;;;;;;
2022/03/25 05:05:06;;;;;;;;;;;;;;;;;;;;;
2022/03/25 05:11:47;;;;;;;;;;;;;;;;;;;;;
2022/03/25 05:15:20;;;;;;;84.75;42.65;;;3.90;99.90;;;;;;4920527;29;20515;-83
2022/03/25 05:18:29;;;;;;;79.88;42.45;;;4.10;99.90;;;;;;4898959;29;20052;-84
2022/03/25 05:22:11;;;;;;;87.90;43.05;;;3.30;99.90;;;;;;4841458;29;20539;-81
2022/03/25 05:25:18;;;;;;;;;;;;;;;;;;;;;
2022/03/25 05:28:57;;;;;;;;;;;;;;;;;;;;;
2022/03/25 05:32:00;;;;;;;85.32;42.25;;;4.00;99.90;;;;;;4917485;29;20244;-83
2022/03/25 05:35:24;;;;;;;90.72;43.35;;;4.30;99.90;;;;;;4908409;29;20052;-81
2022/03/25 05:45:26;;;;;;;93.47;45.08;;;4.20;99.90;;;;;;4925692;29;20059;-79
2022/03/25 05:52:09;;;;;;;98.40;47.10;;;4.30;99.90;;;;;;4901386;29;20052;-81
2022/03/25 05:55:04;;;;;;;91.10;46.17;;;4.40;99.90;;;;;;4902887;29;20060;-79
2022/03/25 05:58:34;;;;;;;95.05;47.05;;;4.50;99.90;;;;;;4899122;29;20112;-81
2022/03/25 06:01:45;;;;;;;90.47;43.95;;;4.30;99.90;;;;;;4882314;29;20499;-80
2022/03/25 06:04:42;;;;;;;85.10;44.47;;;4.20;99.90;;;;;;4852777;29;20509;-81
2022/03/25 06:10:53;;;;;;;87.25;41.95;;;4.70;99.90;;;;;;4937336;28;20105;-82
2022/03/25 06:13:56;;;;;;;90.95;44.72;;;4.70;99.90;;;;;;4973932;28;20062;-81
2022/03/25 06:16:47;;;;;;;82.13;41.53;;;4.60;99.90;;;;;;4951100;28;20046;-81
2022/03/25 06:20:33;;;;;;;80.10;41.75;;;5.00;99.90;;;;;;4988652;28;20046;-82
2022/03/25 06:23:35;;;;;;;77.32;40.70;;;5.00;99.90;;;;;;4917495;29;20576;-83
2022/03/25 06:26:05;;;;;;;73.07;37.97;;;4.70;99.90;;;;;;4942317;28;20125;-75
2022/03/25 06:28:38;;;;;;;71.57;38.17;;;5.00;99.90;;;;;;5022063;28;20045;-75
2022/03/25 06:31:25;;;;;;;73.85;40.35;;;5.50;99.90;;;;;;5033784;28;20058;-80
2022/03/25 06:34:20;;;;;;;68.50;37.45;;;4.50;99.90;;;;;;5017418;28;20140;-79
2022/03/25 06:37:00;;;;;;;71.85;37.85;;;4.80;99.90;;;;;;5029154;28;20054;-79
2022/03/25 06:40:07;;;;;;;67.45;37.00;;;5.10;99.90;;;;;;5028306;28;20064;-79
2022/03/25 06:43:10;;;;;;;;;;;;;;;;;;;;;
2022/03/25 06:46:05;;;;;;;69.70;36.40;;;5.60;99.90;;;;;;5031325;28;20081;-81
2022/03/25 06:48:57;;;;;;;;;;;;;;;;;;;;;
2022/03/25 06:51:35;;;;;;;65.93;36.13;;;5.80;99.90;;;;;;5015990;28;20133;-78
2022/03/25 06:54:10;;;;;;;64.43;34.80;;;6.10;99.90;;;;;;5039789;28;20121;-78
2022/03/25 06:57:04;;;;;;;59.40;35.33;;;6.40;99.90;;;;;;5011600;28;20124;-79
2022/03/25 06:59:45;;;;;;;;;;;;;;;;;;;;;
2022/03/25 07:02:30;;;;;;;55.85;29.63;;;6.80;99.90;;;;;;4985995;28;20128;-80
2022/03/25 07:05:06;;;;;;;53.97;32.00;;;7.60;99.90;;;;;;4996376;28;20046;-79
2022/03/25 07:07:57;;;;;;;;;;;;;;;;;;;;;
2022/03/25 07:10:41;;;;;;;50.78;30.95;;;7.90;99.90;;;;;;5006121;28;19925;-80
2022/03/25 07:13:46;;;;;;;55.65;31.80;;;6.50;99.90;;;;;;4990080;28;20125;-78
2022/03/25 07:16:18;;;;;;;53.15;29.45;;;6.70;99.90;;;;;;4992414;28;20111;-79
2022/03/25 07:18:55;;;;;;;58.70;31.35;;;8.60;99.90;;;;;;4997367;28;20515;-80
2022/03/25 07:21:28;;;;;;;48.72;30.73;;;7.90;99.90;;;;;;4991199;28;20053;-79
2022/03/25 07:24:27;;;;;;;51.65;30.85;;;8.20;99.90;;;;;;5011411;28;20574;-79
2022/03/25 07:27:07;;;;;;;51.08;30.27;;;7.90;99.90;;;;;;4975971;28;20050;-80
2022/03/25 07:30:05;;;;;;;48.65;27.83;;;7.10;99.90;;;;;;5008762;28;20054;-78
2022/03/25 07:32:55;;;;;;;43.38;23.77;;;8.10;99.90;;;;;;5001075;28;20157;-78
2022/03/25 07:35:43;;;;;;;45.45;25.70;;;8.30;99.90;;;;;;4979065;28;20042;-79
2022/03/25 07:38:18;;;;;;;46.38;27.33;;;8.00;99.90;;;;;;4993268;28;20081;-79
2022/03/25 07:40:52;;;;;;;48.45;27.63;;;8.30;99.90;;;;;;4970180;28;20049;-79
2022/03/25 07:43:42;;;;;;;49.08;28.45;;;9.80;99.90;;;;;;5011681;28;20042;-80
2022/03/25 07:46:17;;;;;;;47.60;28.05;;;8.00;99.90;;;;;;4985972;28;20061;-80
2022/03/25 07:49:10;;;;;;;47.50;26.27;;;9.60;99.90;;;;;;4989001;28;20199;-80
2022/03/25 07:51:37;;;;;;;46.08;26.45;;;8.30;99.90;;;;;;4988243;28;20050;-80
2022/03/25 07:54:14;;;;;;;44.58;26.05;;;10.00;99.90;;;;;;5009552;28;20062;-81
2022/03/25 07:57:30;;;;;;;40.50;25.00;;;8.70;99.90;;;;;;5012394;28;20053;-80
2022/03/25 08:01:28;;;;;;;;;;;;;;;;;;;;;
2022/03/25 08:04:56;;;;;;;42.92;24.75;;;8.90;99.90;;;;;;4868638;29;20071;-80
2022/03/25 08:07:49;;;;;;;40.17;23.10;;;9.00;99.90;;;;;;4906672;28;20069;-80
2022/03/25 08:10:34;;;;;;;44.40;22.85;;;10.30;99.90;;;;;;4987072;28;20099;-80
2022/03/25 08:13:07;;;;;;;35.08;22.23;;;9.60;99.90;;;;;;4969121;28;20046;-80
2022/03/25 08:15:39;;;;;;;42.42;23.67;;;9.10;99.90;;;;;;4936013;28;20126;-81
2022/03/25 08:18:16;;;;;;;42.38;24.55;;;9.80;99.90;;;;;;4966551;28;20424;-80
2022/03/25 08:21:04;;;;;;;37.28;22.70;;;9.90;99.90;;;;;;4985998;28;20408;-80
2022/03/25 08:30:25;;;;;;;31.67;17.80;;;10.20;99.90;;;;;;5019793;28;20081;-80
2022/03/25 08:33:27;;;;;;;33.80;18.45;;;10.20;99.30;;;;;;4996632;28;20064;-79
2022/03/25 08:36:47;;;;;;;;;;;;;;;;;;;;;
2022/03/25 08:39:47;;;;;;;34.10;18.58;;;10.30;96.60;;;;;;5022386;28;20060;-81
2022/03/25 08:45:25;;;;;;;34.90;18.60;;;10.50;97.80;;;;;;4981387;28;20046;-80
2022/03/25 08:48:13;;;;;;;31.67;17.85;;;10.70;98.10;;;;;;5049087;28;20049;-79
2022/03/25 08:54:59;;;;;;;;;;;;;;;;;;;;;
2022/03/25 09:05:37;;;;;;;33.78;17.92;;;10.40;93.90;;;;;;4890201;29;20048;-80
2022/03/25 09:08:35;;;;;;;32.35;17.95;;;11.70;94.40;;;;;;4888740;29;20164;-82
2022/03/25 09:11:09;;;;;;;31.13;18.38;;;11.80;94.70;;;;;;4982976;28;20070;-81
2022/03/25 09:14:00;;;;;;;34.10;17.77;;;12.10;94.30;;;;;;4988617;28;20575;-80
2022/03/25 09:16:46;;;;;;;28.02;16.13;;;12.20;94.60;;;;;;4981175;28;20058;-80
2022/03/25 09:20:38;;;;;;;31.23;17.02;;;12.10;94.70;;;;;;4960000;28;20066;-80
2022/03/25 09:23:27;;;;;;;30.58;17.02;;;13.10;93.00;;;;;;4964245;28;20456;-80
2022/03/25 09:26:11;;;;;;;29.73;16.85;;;11.70;91.00;;;;;;5018659;28;20104;-81
2022/03/25 09:29:45;;;;;;;31.35;17.30;;;13.00;91.10;;;;;;5019997;28;20053;-82
2022/03/25 09:32:38;;;;;;;34.22;16.40;;;12.80;91.60;;;;;;5000238;28;20555;-81
2022/03/25 09:35:26;;;;;;;30.27;16.95;;;13.40;92.60;;;;;;5036055;28;20056;-81
2022/03/25 09:37:55;;;;;;;32.17;16.27;;;13.60;90.50;;;;;;5051983;28;20135;-81
2022/03/25 09:40:43;;;;;;;30.10;15.48;;;14.90;89.50;;;;;;5028109;28;20087;-81
2022/03/25 09:43:14;;;;;;;31.33;14.75;;;12.90;78.80;;;;;;5020972;28;20090;-81
2022/03/25 09:46:22;;;;;;;25.95;15.77;;;14.00;82.00;;;;;;5057117;28;20116;-81
2022/03/25 09:52:34;;;;;;;25.05;15.63;;;14.20;81.50;;;;;;5029560;28;20061;-80
2022/03/25 09:55:29;;;;;;;30.08;16.60;;;15.50;81.20;;;;;;5048603;28;20518;-84
2022/03/25 09:58:20;;;;;;;32.80;16.83;;;13.90;78.90;;;;;;5064638;28;20048;-81
2022/03/25 10:01:00;;;;;;;30.83;16.90;;;15.80;78.40;;;;;;4998689;28;20156;-80
2022/03/25 10:03:40;;;;;;;29.20;15.95;;;14.80;77.70;;;;;;4987504;28;20058;-81
2022/03/25 10:06:28;;;;;;;28.10;16.98;;;14.90;77.30;;;;;;4997888;28;20042;-80
2022/03/25 10:09:17;;;;;;;;;;;;;;;;;;;;;
2022/03/25 10:12:31;;;;;;;26.10;16.70;;;14.40;75.30;;;;;;5006814;28;20047;-80
2022/03/25 10:15:50;;;;;;;35.67;19.17;;;15.60;72.00;;;;;;4993204;28;20054;-80
2022/03/25 10:18:36;;;;;;;36.80;20.00;;;15.70;71.80;;;;;;4955156;28;20140;-82
2022/03/25 10:22:08;;;;;;;30.52;18.15;;;16.10;75.90;;;;;;4946279;28;20062;-81
2022/03/25 10:25:09;;;;;;;30.30;18.80;;;16.50;72.60;;;;;;4949438;28;20058;-83
2022/03/25 10:28:22;;;;;;;30.42;19.30;;;16.90;68.30;;;;;;4923000;29;20075;-83
2022/03/25 10:31:33;;;;;;;34.55;20.42;;;16.80;65.70;;;;;;5000870;28;20053;-82
2022/03/25 10:34:32;;;;;;;;;;;;;;;;;;;;;
2022/03/25 10:41:35;;;;;;;33.90;21.73;;;16.20;63.30;;;;;;5009064;28;20139;-82
2022/03/25 10:51:35;;;;;;;30.35;20.05;;;17.00;66.60;;;;;;4929488;28;20592;-83
2022/03/25 10:54:56;;;;;;;31.60;20.00;;;18.50;63.60;;;;;;4951015;28;20122;-83
2022/03/25 11:17:17;;;;;;;;;;;;;;;;;;;;;
2022/03/25 11:20:20;;;;;;;34.42;19.85;;;19.00;56.50;;;;;;4756578;29;20164;-84
2022/03/25 11:23:32;;;;;;;29.08;19.48;;;18.70;55.50;;;;;;4804966;29;20061;-84
2022/03/25 11:26:45;;;;;;;32.00;19.13;;;18.20;54.60;;;;;;4840902;29;20058;-85
2022/03/25 11:29:44;;;;;;;32.78;19.27;;;18.70;54.30;;;;;;4840706;29;20738;-81
2022/03/25 11:32:26;;;;;;;34.03;17.92;;;18.80;53.60;;;;;;4839945;29;20061;-84
2022/03/25 11:35:32;;;;;;;26.80;17.42;;;18.90;53.90;;;;;;4848762;29;20057;-82
2022/03/25 11:38:23;;;;;;;30.77;18.05;;;18.70;53.50;;;;;;4931394;29;20526;-82
2022/03/25 11:41:42;;;;;;;33.53;17.38;;;18.60;55.00;;;;;;4897008;29;20044;-85
2022/03/25 11:44:35;;;;;;;32.88;15.70;;;19.20;50.60;;;;;;5016111;28;20137;-83
2022/03/25 11:47:37;;;;;;;33.22;15.48;;;19.20;50.30;;;;;;5010447;28;20189;-82
2022/03/25 11:54:56;;;;;;;;;;;;;;;;;;;;;
2022/03/25 11:58:41;;;;;;;;;;;;;;;;;;;;;
2022/03/25 12:09:45;;;;;;;;;;;;;;;;;;;;;
2022/03/25 12:13:17;;;;;;;23.45;13.63;;;19.70;47.30;;;;;;4884412;29;20052;-87
2022/03/25 12:17:07;;;;;;;;;;;;;;;;;;;;;
2022/03/25 12:23:47;;;;;;;19.90;11.40;;;20.10;47.00;;;;;;4800126;29;20084;-86
2022/03/25 12:31:25;;;;;;;20.08;12.13;;;20.70;44.70;;;;;;4730226;30;20071;-85
2022/03/25 12:38:56;;;;;;;25.95;13.75;;;19.80;43.70;;;;;;4702079;30;20060;-85
2022/03/25 12:46:30;;;;;;;;;;;;;;;;;;;;;
2022/03/25 12:53:35;;;;;;;;;;;;;;;;;;;;;
2022/03/25 12:56:23;;;;;;;29.90;18.33;;;20.50;44.20;;;;;;4886673;29;20060;-85
2022/03/25 12:59:11;;;;;;;28.00;18.17;;;19.50;43.50;;;;;;4905174;29;20109;-86
2022/03/25 13:02:25;;;;;;;;;;;;;;;;;;;;;
2022/03/25 13:05:28;;;;;;;31.90;19.73;;;19.70;45.40;;;;;;4927016;29;20059;-85
2022/03/25 13:08:18;;;;;;;32.50;19.98;;;19.10;46.20;;;;;;4925996;29;20070;-85
2022/03/25 13:11:21;;;;;;;28.70;17.48;;;19.50;44.40;;;;;;4938769;28;20055;-84
2022/03/25 13:14:30;;;;;;;29.65;17.17;;;19.50;44.40;;;;;;4928573;29;20051;-85
2022/03/25 13:17:39;;;;;;;30.25;19.20;;;19.50;44.30;;;;;;4986350;28;20056;-85
2022/03/25 13:20:46;;;;;;;31.10;18.95;;;17.80;44.70;;;;;;5016564;28;20099;-84
2022/03/25 13:23:27;;;;;;;39.72;19.33;;;17.30;45.80;;;;;;5045410;28;20566;-85
2022/03/25 13:27:03;;;;;;;29.27;16.83;;;16.80;47.70;;;;;;5027900;28;20163;-86
2022/03/25 13:29:55;;;;;;;31.40;17.48;;;16.40;48.10;;;;;;5004538;28;20073;-86
2022/03/25 13:33:23;;;;;;;;;;;;;;;;;;;;;
2022/03/25 13:36:47;;;;;;;29.90;14.63;;;15.80;48.50;;;;;;5052715;28;20049;-84
2022/03/25 13:39:19;;;;;;;30.63;15.43;;;15.70;48.00;;;;;;5074008;28;20036;-84
2022/03/25 13:42:18;;;;;;;26.17;13.93;;;15.60;48.60;;;;;;5037613;28;20049;-83
2022/03/25 13:45:09;;;;;;;22.25;12.20;;;15.70;47.90;;;;;;5028703;28;20029;-83
2022/03/25 13:47:44;;;;;;;24.85;12.85;;;16.40;48.00;;;;;;5026061;28;20045;-84
2022/03/25 13:50:35;;;;;;;23.20;13.68;;;16.50;49.10;;;;;;5017004;28;20072;-84
2022/03/25 13:53:20;;;;;;;;;;;;;;;;;;;;;
2022/03/25 13:56:02;;;;;;;;;;;;;;;;;;;;;
2022/03/25 13:58:43;;;;;;;36.78;15.80;;;15.60;53.90;;;;;;5037729;28;20081;-83
2022/03/25 14:01:51;;;;;;;32.80;15.20;;;15.40;56.10;;;;;;5039071;28;20034;-84
2022/03/25 14:07:41;;;;;;;36.53;17.42;;;15.20;58.50;;;;;;5041315;28;20030;-82
2022/03/25 14:17:19;;;;;;;37.45;20.83;;;15.10;60.80;;;;;;5015122;28;20472;-83
2022/03/25 14:20:28;;;;;;;;;;;;;;;;;;;;;
2022/03/25 14:24:30;;;;;;;42.17;21.65;;;13.70;61.50;;;;;;5009924;28;20057;-83
2022/03/25 14:27:25;;;;;;;42.92;20.23;;;13.80;62.00;;;;;;5029296;28;20056;-84
2022/03/25 14:31:04;;;;;;;43.05;20.83;;;14.80;61.80;;;;;;5032024;28;20057;-84
2022/03/25 14:34:27;;;;;;;38.42;21.65;;;14.60;61.50;;;;;;5018187;28;20444;-83
2022/03/25 14:40:26;;;;;;;39.78;20.60;;;14.40;63.00;;;;;;5056140;28;20072;-83
2022/03/25 14:46:14;;;;;;;37.58;20.13;;;15.30;64.70;;;;;;5033536;28;20046;-83
2022/03/25 14:49:28;;;;;;;;;;;;;;;;;;;;;
2022/03/25 14:52:30;;;;;;;37.80;19.02;;;14.60;64.10;;;;;;5046702;28;20053;-85
2022/03/25 14:55:43;;;;;;;32.42;17.92;;;14.10;63.90;;;;;;5037768;28;20044;-84
2022/03/25 14:58:22;;;;;;;35.38;18.83;;;14.30;65.20;;;;;;5016559;28;20053;-84
2022/03/25 15:01:00;;;;;;;37.30;19.95;;;14.10;65.10;;;;;;4988104;28;20393;-84
2022/03/25 15:03:55;;;;;;;38.88;17.75;;;14.20;65.70;;;;;;5018437;28;20057;-84
2022/03/25 15:06:44;;;;;;;;;;;;;;;;;;;;;
2022/03/25 15:09:24;;;;;;;42.33;18.50;;;14.10;65.60;;;;;;4982733;28;20049;-84
2022/03/25 15:12:20;;;;;;;31.58;17.35;;;15.80;66.50;;;;;;5011034;28;20037;-81
2022/03/25 15:15:04;;;;;;;34.30;16.40;;;14.20;65.80;;;;;;5029771;28;20052;-81
2022/03/25 15:17:45;;;;;;;34.63;17.17;;;14.20;65.10;;;;;;5000557;28;20108;-81
2022/03/25 15:20:22;;;;;;;33.47;16.85;;;14.10;65.40;;;;;;4996447;28;20045;-82
2022/03/25 15:26:23;;;;;;;30.35;16.48;;;14.30;65.90;;;;;;5029747;28;20049;-82
2022/03/25 15:34:26;;;;;;;32.88;15.27;;;14.50;66.40;;;;;;5021656;28;20053;-81
2022/03/25 15:35:30;;;;;;;28.33;14.27;;;14.00;64.50;;;;;;5014034;28;20082;-84
2022/03/25 15:38:21;;;;;;;38.13;15.88;;;13.60;64.10;;;;;;5027058;28;20067;-83
2022/03/25 15:40:50;;;;;;;34.47;14.85;;;14.20;64.80;;;;;;4986399;28;20046;-85
2022/03/25 15:43:40;;;;;;;38.60;14.90;;;15.30;66.80;;;;;;4998874;28;20072;-83
2022/03/25 15:46:26;;;;;;;31.88;12.68;;;14.10;66.40;;;;;;5028509;28;20038;-86
2022/03/25 15:48:57;;;;;;;28.42;11.25;;;14.40;66.30;;;;;;5022188;28;20447;-85
2022/03/25 15:51:37;;;;;;;29.50;12.35;;;13.80;67.90;;;;;;5046305;28;20492;-84
2022/03/25 15:54:08;;;;;;;23.25;9.95;;;13.80;66.20;;;;;;4998374;28;20132;-81
2022/03/25 15:57:19;;;;;;;;;;;;;;;;;;;;;
2022/03/25 15:59:59;;;;;;;22.92;11.02;;;13.70;66.70;;;;;;5031633;28;20140;-81
2022/03/25 16:03:20;;;;;;;27.38;11.90;;;13.60;68.50;;;;;;5033449;28;20041;-82
2022/03/25 16:06:29;;;;;;;;;;;;;;;;;;;;;
2022/03/25 16:09:17;;;;;;;33.67;12.82;;;13.50;67.20;;;;;;4923048;28;20046;-81
2022/03/25 16:11:58;;;;;;;;;;;;;;;;;;;;;
2022/03/25 16:14:52;;;;;;;28.63;13.07;;;13.30;64.70;;;;;;4995687;28;20119;-81
2022/03/25 16:17:23;;;;;;;24.92;13.20;;;12.70;62.10;;;;;;5045486;28;20511;-79
2022/03/25 16:20:02;;;;;;;27.25;12.90;;;13.30;61.20;;;;;;5023530;28;20042;-82
2022/03/25 16:22:31;;;;;;;30.50;12.43;;;13.30;61.60;;;;;;5011540;28;20117;-80
2022/03/25 16:25:09;;;;;;;22.45;9.88;;;13.00;62.70;;;;;;5000284;28;20053;-80
2022/03/25 16:27:47;;;;;;;24.27;11.35;;;13.00;60.90;;;;;;5018500;28;20044;-81
2022/03/25 16:30:21;;;;;;;25.45;11.93;;;12.90;58.20;;;;;;5027625;28;20076;-79
2022/03/25 16:33:04;;;;;;;;;;;;;;;;;;;;;
2022/03/25 16:35:34;;;;;;;24.20;11.48;;;12.70;58.00;;;;;;5034114;28;20045;-80
2022/03/25 16:38:14;;;;;;;26.80;11.43;;;12.90;55.90;;;;;;5017125;28;20037;-80
2022/03/25 16:40:51;;;;;;;21.13;10.07;;;12.70;55.40;;;;;;4996817;28;20084;-80
2022/03/25 16:43:53;;;;;;;24.77;10.60;;;11.60;53.50;;;;;;5025757;28;20048;-82
2022/03/25 16:46:24;;;;;;;20.30;9.50;;;14.00;54.10;;;;;;4994227;28;20045;-81
2022/03/25 16:49:50;;;;;;;24.88;9.90;;;12.50;52.10;;;;;;5026638;28;20053;-79
2022/03/25 16:55:51;;;;;;;22.52;10.80;;;12.40;51.70;;;;;;5012724;28;20135;-80
2022/03/25 16:58:24;;;;;;;19.30;9.98;;;11.60;51.60;;;;;;5021355;28;20085;-80
2022/03/25 17:00:56;;;;;;;23.50;10.00;;;12.20;51.20;;;;;;5026611;28;20081;-80
2022/03/25 17:03:28;;;;;;;21.92;9.75;;;12.20;51.50;;;;;;5024555;28;20041;-79
2022/03/25 17:06:00;;;;;;;15.80;9.32;;;12.30;52.30;;;;;;5033765;28;20185;-80
2022/03/25 17:08:32;;;;;;;26.02;9.90;;;11.30;52.00;;;;;;5041207;28;20049;-81
2022/03/25 17:11:24;;;;;;;19.50;9.27;;;12.20;51.10;;;;;;5013929;28;20052;-80
2022/03/25 17:14:04;;;;;;;21.38;10.52;;;11.10;50.70;;;;;;5005939;28;20053;-80
2022/03/25 17:16:38;;;;;;;26.15;10.57;;;12.70;51.70;;;;;;5032757;28;20037;-80
2022/03/25 17:19:09;;;;;;;20.85;9.80;;;13.10;52.80;;;;;;5018308;28;20057;-80
2022/03/25 17:21:40;;;;;;;24.33;9.05;;;13.50;52.40;;;;;;5013956;28;20460;-80
2022/03/25 17:24:23;;;;;;;16.73;9.10;;;11.90;51.90;;;;;;5033183;28;20107;-81
2022/03/25 17:30:31;;;;;;;;;;;;;;;;;;;;;
2022/03/25 17:33:25;;;;;;;;;;;;;;;;;;;;;
2022/03/25 17:36:14;;;;;;;;;;;;;;;;;;;;;
2022/03/25 17:38:47;;;;;;;29.83;13.23;;;11.50;53.10;;;;;;5017903;28;20421;-79
2022/03/25 17:41:20;;;;;;;28.65;15.40;;;11.40;53.60;;;;;;5000474;28;20463;-79
2022/03/25 17:44:24;;;;;;;26.40;14.15;;;11.40;55.50;;;;;;5027088;28;20053;-79
2022/03/25 17:47:12;;;;;;;30.23;15.15;;;10.40;56.60;;;;;;5035971;28;20049;-79
2022/03/25 17:49:44;;;;;;;29.20;16.73;;;11.40;58.30;;;;;;5019369;28;20115;-79
2022/03/25 17:56:10;;;;;;;42.65;22.33;;;10.50;61.30;;;;;;4965695;28;20490;-79
2022/03/25 17:59:25;;;;;;;45.80;23.35;;;10.50;63.20;;;;;;4973790;28;20059;-78
2022/03/25 18:01:57;;;;;;;44.38;23.83;;;11.30;66.50;;;;;;5020845;28;20096;-81
2022/03/25 18:04:26;;;;;;;44.45;24.35;;;11.80;69.20;;;;;;5023649;28;20041;-81
2022/03/25 18:07:02;;;;;;;41.05;24.77;;;10.80;70.10;;;;;;5017466;28;20045;-81
2022/03/25 18:10:17;;;;;;;43.50;25.27;;;10.90;69.70;;;;;;5057948;28;20504;-80
2022/03/25 18:12:51;;;;;;;44.63;26.52;;;11.30;73.60;;;;;;5005055;28;20084;-81
2022/03/25 18:15:57;;;;;;;51.20;27.58;;;10.70;73.10;;;;;;5038160;28;20056;-80
2022/03/25 18:18:29;;;;;;;46.75;27.45;;;11.40;75.80;;;;;;4975613;28;20050;-80
2022/03/25 18:21:25;;;;;;;53.15;28.95;;;10.90;77.20;;;;;;5005507;28;20053;-81
2022/03/25 18:23:58;;;;;;;50.35;28.13;;;10.70;80.50;;;;;;5033698;28;20057;-81
2022/03/25 18:27:07;;;;;;;55.35;29.17;;;11.00;81.50;;;;;;5015934;28;20462;-81
2022/03/25 18:29:49;;;;;;;52.83;30.70;;;11.10;84.40;;;;;;5014122;28;20709;-81
2022/03/25 18:32:36;;;;;;;57.38;31.33;;;10.50;85.40;;;;;;5029204;28;20046;-81
2022/03/25 18:35:09;;;;;;;55.45;29.80;;;10.30;86.80;;;;;;5028542;28;20049;-81
2022/03/25 18:38:01;;;;;;;49.47;25.33;;;10.20;87.30;;;;;;5014061;28;20048;-82
2022/03/25 18:40:41;;;;;;;39.78;23.83;;;10.10;84.30;;;;;;4996088;28;20064;-82
2022/03/25 18:43:08;;;;;;;43.15;22.58;;;10.20;81.90;;;;;;5005653;28;20049;-81
2022/03/25 18:45:40;;;;;;;39.50;20.42;;;10.00;79.10;;;;;;4998616;28;20536;-81
2022/03/25 18:48:19;;;;;;;34.85;19.10;;;9.80;74.60;;;;;;4997618;28;20066;-81
2022/03/25 18:50:59;;;;;;;37.53;18.88;;;9.80;72.50;;;;;;4992767;28;20061;-81
2022/03/25 18:53:34;;;;;;;36.05;18.40;;;9.40;70.90;;;;;;5050305;28;20040;-81
2022/03/25 18:56:07;;;;;;;36.13;18.48;;;11.30;72.10;;;;;;5031772;28;20049;-80
2022/03/25 19:21:43;;;;;;;39.15;22.45;;;8.10;74.20;;;;;;4864183;29;20165;-81
2022/03/25 19:39:22;;;;;;;54.33;30.30;;;9.00;86.10;;;;;;4755730;30;20059;-81
2022/03/25 19:41:56;;;;;;;62.08;33.00;;;8.80;88.00;;;;;;4752235;29;20493;-81
2022/03/25 19:44:55;;;;;;;59.95;32.10;;;8.90;91.10;;;;;;4866928;29;20061;-80
2022/03/25 19:48:07;;;;;;;57.80;31.70;;;8.70;90.30;;;;;;4901082;29;20454;-82
2022/03/25 19:51:05;;;;;;;64.13;32.92;;;8.70;90.90;;;;;;4915101;29;20466;-80
2022/03/25 19:54:20;;;;;;;;;;;;;;;;;;;;;
2022/03/25 19:57:50;;;;;;;;;;;;;;;;;;;;;
2022/03/25 20:01:22;;;;;;;72.93;38.75;;;8.80;94.10;;;;;;5045375;28;20056;-81
2022/03/25 20:04:13;;;;;;;76.97;41.38;;;8.60;95.00;;;;;;5041936;28;20037;-81
2022/03/25 20:08:03;;;;;;;;;;;;;;;;;;;;;
2022/03/25 20:11:39;;;;;;;;;;;;;;;;;;;;;
2022/03/25 20:14:34;;;;;;;84.47;44.60;;;8.60;99.00;;;;;;4957504;28;20616;-79
2022/03/25 20:17:44;;;;;;;87.38;47.03;;;10.00;99.90;;;;;;4954293;28;20046;-82
2022/03/25 20:21:08;;;;;;;;;;;;;;;;;;;;;
2022/03/25 20:24:14;;;;;;;89.53;48.28;;;9.20;99.90;;;;;;5042332;28;20049;-80
2022/03/25 20:28:04;;;;;;;95.20;48.53;;;8.00;99.90;;;;;;4912346;29;20131;-81
2022/03/25 20:30:33;;;;;;;97.03;51.25;;;7.30;99.90;;;;;;4921573;28;20055;-81
2022/03/25 20:33:35;;;;;;;96.60;50.92;;;7.60;99.90;;;;;;4976794;28;20093;-82
2022/03/25 20:36:26;;;;;;;;;;;;;;;;;;;;;
2022/03/25 20:42:54;;;;;;;;;;;;;;;;;;;;;
2022/03/25 20:46:30;;;;;;;104.10;53.17;;;8.30;99.90;;;;;;5059890;28;20039;-82
2022/03/25 20:49:11;;;;;;;;;;;;;;;;;;;;;
2022/03/25 20:52:50;;;;;;;;;;;;;;;;;;;;;
2022/03/25 20:56:08;;;;;;;;;;;;;;;;;;;;;
2022/03/25 21:03:19;;;;;;;111.20;55.47;;;7.30;99.90;;;;;;5000014;28;20060;-84
2022/03/25 21:13:09;;;;;;;;;;;;;;;;;;;;;
2022/03/25 21:16:31;;;;;;;101.72;53.63;;;7.60;99.90;;;;;;4894603;29;20103;-83
2022/03/25 21:19:31;;;;;;;104.88;53.05;;;7.80;99.90;;;;;;4895254;29;20096;-79
2022/03/25 21:22:27;;;;;;;95.85;51.25;;;7.60;99.90;;;;;;4901241;29;20509;-81
2022/03/25 21:25:11;;;;;;;;;;;;;;;;;;;;;
2022/03/25 21:27:51;;;;;;;102.00;50.78;;;7.70;99.90;;;;;;5012789;28;20133;-82